Time;durP1;ratioP1;P1;durP2;ratioP2;P2;SDS_P1;SDS_P2;PMS_P1;PMS_P2;Temp;Humidity;BMP_temperature;BMP_pressure;BME280_temperature;BME280_humidity;BME280_pressure;Samples;Min_cycle;Max_cycle;Signal;HPM_P1;HPM_P2
2022/12/31 00:01:11;;;;;;;2.37;1.73;;;12.20;99.90;;;;;;5037211;28;20463;-64
2022/12/31 00:03:39;;;;;;;2.30;1.90;;;12.20;99.90;;;;;;5037398;28;20969;-65
2022/12/31 00:06:17;;;;;;;2.63;1.80;;;12.20;99.90;;;;;;5035700;28;20534;-63
2022/12/31 00:08:44;;;;;;;2.30;1.90;;;12.10;99.90;;;;;;5037112;28;20485;-62
2022/12/31 00:11:12;;;;;;;2.50;1.80;;;12.10;99.90;;;;;;5037067;28;20558;-66
2022/12/31 00:13:39;;;;;;;2.57;2.00;;;12.10;99.90;;;;;;5044694;28;20454;-63
2022/12/31 00:16:08;;;;;;;2.50;1.77;;;12.10;99.90;;;;;;5056814;28;20470;-64
2022/12/31 00:18:36;;;;;;;2.70;1.80;;;12.10;99.90;;;;;;5056175;28;20822;-66
2022/12/31 00:21:08;;;;;;;2.37;1.90;;;12.10;99.90;;;;;;5056406;28;20485;-64
2022/12/31 00:23:36;;;;;;;3.00;1.97;;;12.10;99.90;;;;;;5056550;28;20493;-66
2022/12/31 00:26:05;;;;;;;2.63;1.80;;;12.10;99.90;;;;;;5056756;28;20477;-64
2022/12/31 00:28:33;;;;;;;2.87;1.70;;;12.10;99.90;;;;;;5056522;28;20762;-65
2022/12/31 00:31:06;;;;;;;2.83;2.20;;;12.10;99.90;;;;;;5056476;28;20473;-65
2022/12/31 00:33:36;;;;;;;2.57;1.60;;;12.10;99.90;;;;;;5056837;28;20484;-66
2022/12/31 00:36:14;;;;;;;3.10;2.00;;;12.10;99.90;;;;;;5056537;28;20466;-64
2022/12/31 00:38:42;;;;;;;2.43;1.80;;;12.00;99.90;;;;;;5056688;28;20468;-66
2022/12/31 00:41:10;;;;;;;2.43;2.00;;;12.10;99.90;;;;;;5056355;28;20746;-64
2022/12/31 00:43:37;;;;;;;2.73;1.70;;;12.10;99.90;;;;;;5056183;28;20939;-65
2022/12/31 00:46:06;;;;;;;2.63;1.80;;;12.10;99.90;;;;;;5040789;28;20900;-63
2022/12/31 00:48:33;;;;;;;2.80;1.60;;;12.10;99.90;;;;;;5035317;28;20441;-63
2022/12/31 00:51:01;;;;;;;2.43;1.80;;;12.10;99.90;;;;;;5035473;28;20437;-63
2022/12/31 00:53:30;;;;;;;2.00;1.63;;;12.10;99.90;;;;;;5035395;28;20463;-63
2022/12/31 00:56:01;;;;;;;3.27;1.70;;;12.10;99.90;;;;;;5035837;28;20467;-63
2022/12/31 00:58:28;;;;;;;2.10;1.60;;;12.10;99.90;;;;;;5035955;28;20537;-65
2022/12/31 01:00:55;;;;;;;2.20;1.60;;;12.20;99.90;;;;;;5036160;28;20474;-65
2022/12/31 01:03:22;;;;;;;3.40;1.60;;;12.20;99.90;;;;;;5036124;28;20805;-64
2022/12/31 01:05:53;;;;;;;2.00;1.50;;;12.30;99.90;;;;;;5035672;28;20493;-65
2022/12/31 01:08:20;;;;;;;2.60;1.30;;;12.30;99.90;;;;;;5034411;28;20884;-64
2022/12/31 01:13:36;;;;;;;2.80;1.73;;;12.40;99.90;;;;;;5038393;28;20438;-66
2022/12/31 01:16:10;;;;;;;1.90;1.40;;;12.30;99.90;;;;;;5038799;28;20902;-65
2022/12/31 01:18:38;;;;;;;2.00;1.50;;;12.40;99.90;;;;;;5038769;28;20463;-64
2022/12/31 01:21:07;;;;;;;2.00;1.80;;;12.40;99.90;;;;;;5038158;28;20472;-63
2022/12/31 01:23:36;;;;;;;2.73;1.53;;;12.40;99.90;;;;;;5039995;28;20497;-62
2022/12/31 01:26:07;;;;;;;2.13;1.47;;;12.40;99.90;;;;;;5039844;28;20741;-62
2022/12/31 01:28:35;;;;;;;2.30;1.33;;;12.40;99.90;;;;;;5039298;28;20463;-63
2022/12/31 01:31:04;;;;;;;1.93;1.50;;;12.40;99.90;;;;;;5039566;28;20505;-61
2022/12/31 01:33:32;;;;;;;2.03;1.40;;;12.40;99.90;;;;;;5039850;28;20459;-63
2022/12/31 01:36:03;;;;;;;2.27;1.73;;;12.40;99.90;;;;;;5039939;28;20803;-65
2022/12/31 01:38:30;;;;;;;1.90;1.30;;;12.40;99.90;;;;;;5039384;28;20475;-65
2022/12/31 01:40:57;;;;;;;1.90;1.30;;;12.40;99.90;;;;;;5034750;28;20458;-66
2022/12/31 01:43:48;;;;;;;3.23;1.87;;;12.40;99.90;;;;;;5018616;28;20877;-65
2022/12/31 01:46:26;;;;;;;1.80;1.23;;;12.40;99.90;;;;;;5018505;28;20795;-65
2022/12/31 01:48:57;;;;;;;2.00;1.40;;;12.50;99.90;;;;;;5017814;28;20471;-62
2022/12/31 01:51:27;;;;;;;3.83;1.30;;;12.50;99.90;;;;;;5018429;28;20470;-61
2022/12/31 01:53:55;;;;;;;1.90;1.40;;;12.60;99.90;;;;;;5019687;28;20456;-66
2022/12/31 01:56:23;;;;;;;1.80;1.30;;;12.70;99.90;;;;;;5019099;28;20463;-64
2022/12/31 01:58:54;;;;;;;2.10;1.43;;;12.70;99.90;;;;;;5019498;28;20923;-63
2022/12/31 02:01:25;;;;;;;6.30;1.70;;;12.60;99.90;;;;;;5019507;28;20486;-63
2022/12/31 02:03:53;;;;;;;3.40;1.10;;;12.70;99.90;;;;;;5018008;28;20514;-63
2022/12/31 02:06:22;;;;;;;1.90;1.50;;;12.80;99.90;;;;;;5017447;28;20492;-62
2022/12/31 02:08:49;;;;;;;2.50;1.27;;;12.80;99.90;;;;;;5017572;28;20464;-62
2022/12/31 02:11:23;;;;;;;1.83;1.30;;;12.90;99.90;;;;;;5017863;28;20466;-61
2022/12/31 02:13:54;;;;;;;1.70;1.27;;;12.90;99.90;;;;;;5018027;28;20491;-62
2022/12/31 02:16:29;;;;;;;2.53;1.53;;;13.00;99.90;;;;;;5017850;28;20464;-62
2022/12/31 02:19:04;;;;;;;4.03;1.17;;;13.00;99.90;;;;;;5019319;28;20470;-60
2022/12/31 02:21:48;;;;;;;2.60;1.37;;;13.20;99.90;;;;;;5017958;28;20467;-61
2022/12/31 02:24:48;;;;;;;1.70;1.10;;;13.30;99.90;;;;;;5018501;28;20499;-60
2022/12/31 02:27:25;;;;;;;1.60;1.00;;;13.30;99.90;;;;;;5019018;28;20468;-59
2022/12/31 02:30:07;;;;;;;1.70;1.30;;;13.40;99.90;;;;;;5018364;28;20459;-61
2022/12/31 02:33:03;;;;;;;1.80;1.30;;;13.40;99.90;;;;;;5018765;28;20514;-62
2022/12/31 02:35:33;;;;;;;1.70;1.03;;;13.50;99.90;;;;;;5006509;28;20472;-61
2022/12/31 02:38:05;;;;;;;1.70;1.20;;;13.50;99.90;;;;;;5019175;28;20468;-60
2022/12/31 02:40:34;;;;;;;1.70;1.10;;;13.50;99.90;;;;;;5018830;28;20464;-62
2022/12/31 02:43:02;;;;;;;1.70;1.30;;;13.50;99.90;;;;;;5018493;28;20554;-60
2022/12/31 02:45:34;;;;;;;2.40;1.30;;;13.60;99.90;;;;;;5018645;28;20464;-61
2022/12/31 02:48:28;;;;;;;1.87;1.33;;;13.60;99.90;;;;;;5018809;28;20471;-60
2022/12/31 02:51:05;;;;;;;2.00;1.10;;;13.60;99.90;;;;;;5013547;28;20908;-62
2022/12/31 02:54:04;;;;;;;1.70;1.20;;;13.70;99.90;;;;;;5018571;28;20467;-62
2022/12/31 02:56:38;;;;;;;1.80;1.30;;;13.60;99.90;;;;;;5018088;28;20460;-62
2022/12/31 03:02:14;;;;;;;2.10;1.40;;;13.60;99.90;;;;;;5018380;28;20481;-62
2022/12/31 03:04:43;;;;;;;1.70;1.20;;;13.60;99.90;;;;;;5018096;28;20469;-61
2022/12/31 03:07:12;;;;;;;1.90;1.30;;;13.70;99.90;;;;;;5018459;28;20996;-62
2022/12/31 03:09:39;;;;;;;2.00;1.20;;;13.70;99.90;;;;;;5018513;28;20728;-62
2022/12/31 03:14:54;;;;;;;1.80;1.20;;;13.70;99.90;;;;;;5018134;28;20479;-62
2022/12/31 03:17:23;;;;;;;1.80;1.30;;;13.70;99.90;;;;;;5018332;28;20514;-62
2022/12/31 03:22:37;;;;;;;1.70;1.20;;;13.70;99.90;;;;;;5017592;28;20955;-63
2022/12/31 03:27:53;;;;;;;1.80;1.20;;;13.60;99.90;;;;;;5017812;28;20490;-63
2022/12/31 03:30:23;;;;;;;1.70;1.10;;;13.60;99.90;;;;;;5017219;28;20486;-62
2022/12/31 03:32:52;;;;;;;1.77;1.30;;;13.60;99.90;;;;;;5017792;28;20466;-65
2022/12/31 03:35:21;;;;;;;1.80;1.40;;;13.70;99.90;;;;;;5017941;28;20495;-65
2022/12/31 03:37:49;;;;;;;1.70;1.10;;;13.70;99.90;;;;;;5017232;28;20480;-64
2022/12/31 03:40:18;;;;;;;1.70;1.10;;;13.70;99.90;;;;;;5017783;28;20707;-65
2022/12/31 03:42:45;;;;;;;1.70;1.20;;;13.80;99.90;;;;;;5017399;28;20439;-64
2022/12/31 03:45:13;;;;;;;2.90;1.40;;;13.80;99.90;;;;;;5017578;28;20499;-63
2022/12/31 03:47:41;;;;;;;3.23;1.30;;;13.90;99.90;;;;;;5017959;28;20470;-62
2022/12/31 03:50:11;;;;;;;2.70;1.23;;;14.00;99.90;;;;;;5016985;28;20471;-64
2022/12/31 03:52:38;;;;;;;1.90;1.30;;;14.00;99.90;;;;;;5017540;28;20902;-63
2022/12/31 03:55:07;;;;;;;2.40;1.07;;;14.10;99.90;;;;;;5017265;28;20468;-62
2022/12/31 03:57:34;;;;;;;5.23;1.90;;;14.10;99.90;;;;;;5017458;28;20890;-62
2022/12/31 04:00:01;;;;;;;4.87;1.30;;;14.20;99.90;;;;;;5017414;28;20772;-62
2022/12/31 04:02:28;;;;;;;1.83;1.37;;;14.20;99.90;;;;;;5017397;28;20468;-61
2022/12/31 04:04:56;;;;;;;2.00;1.50;;;14.30;99.90;;;;;;5017008;28;20507;-61
2022/12/31 04:07:24;;;;;;;3.67;1.23;;;14.30;99.90;;;;;;5016914;28;20471;-63
2022/12/31 04:09:52;;;;;;;2.10;1.57;;;14.40;99.90;;;;;;5017295;28;20881;-62
2022/12/31 04:12:19;;;;;;;3.13;1.30;;;14.50;99.90;;;;;;5016868;28;20506;-62
2022/12/31 04:14:46;;;;;;;2.70;1.33;;;14.40;99.90;;;;;;5017032;28;20571;-63
2022/12/31 04:17:13;;;;;;;2.43;1.40;;;14.40;99.90;;;;;;5016518;28;20470;-62
2022/12/31 04:19:40;;;;;;;2.40;1.30;;;14.40;99.90;;;;;;5017169;28;20890;-61
2022/12/31 04:22:07;;;;;;;1.70;1.13;;;14.50;99.90;;;;;;5016684;28;20464;-63
2022/12/31 04:24:36;;;;;;;1.80;1.30;;;14.50;99.90;;;;;;5017083;28;20496;-60
2022/12/31 04:27:03;;;;;;;1.90;1.23;;;14.50;99.90;;;;;;5016435;28;20468;-60
2022/12/31 04:29:30;;;;;;;3.63;1.50;;;14.50;99.90;;;;;;5016409;28;20464;-59
2022/12/31 04:31:57;;;;;;;1.80;1.10;;;14.40;99.90;;;;;;5017048;28;20464;-59
2022/12/31 04:34:25;;;;;;;1.97;0.97;;;14.40;99.90;;;;;;5016486;28;20464;-62
2022/12/31 04:36:52;;;;;;;1.70;1.10;;;14.40;99.90;;;;;;5016928;28;20460;-64
2022/12/31 04:39:19;;;;;;;2.47;1.17;;;14.20;99.90;;;;;;5017162;28;20463;-61
2022/12/31 04:41:47;;;;;;;2.73;1.40;;;14.30;99.90;;;;;;5016839;28;20442;-61
2022/12/31 04:44:15;;;;;;;2.00;1.50;;;14.30;99.90;;;;;;5015662;28;20772;-59
2022/12/31 04:46:42;;;;;;;2.03;1.63;;;14.20;99.90;;;;;;5016607;28;20434;-61
2022/12/31 04:49:09;;;;;;;2.10;1.30;;;14.20;99.90;;;;;;5016316;28;20464;-61
2022/12/31 04:51:37;;;;;;;1.70;1.23;;;14.20;99.90;;;;;;5016608;28;20463;-62
2022/12/31 04:54:05;;;;;;;2.00;1.20;;;14.30;99.90;;;;;;5016199;28;20869;-61
2022/12/31 04:56:35;;;;;;;1.80;1.30;;;14.40;99.90;;;;;;5016134;28;20468;-61
2022/12/31 04:59:04;;;;;;;2.07;1.57;;;14.50;99.90;;;;;;5016583;28;20716;-61
2022/12/31 05:01:31;;;;;;;3.20;1.50;;;14.50;99.90;;;;;;5016847;28;20467;-62
2022/12/31 05:03:59;;;;;;;3.07;1.50;;;14.50;99.90;;;;;;5016536;28;20488;-63
2022/12/31 05:06:26;;;;;;;2.30;1.30;;;14.60;99.90;;;;;;5015683;28;20561;-61
2022/12/31 05:08:53;;;;;;;1.70;1.00;;;14.70;99.90;;;;;;5016314;28;20474;-60
2022/12/31 05:11:20;;;;;;;2.27;1.20;;;14.70;99.90;;;;;;5016550;28;20503;-60
2022/12/31 05:13:49;;;;;;;2.37;1.37;;;14.80;99.90;;;;;;5016428;28;20764;-61
2022/12/31 05:16:17;;;;;;;2.20;1.50;;;14.80;99.90;;;;;;5016747;28;20460;-59
2022/12/31 05:18:44;;;;;;;2.77;1.27;;;14.80;99.90;;;;;;5016600;28;20464;-57
2022/12/31 05:21:19;;;;;;;2.00;1.40;;;14.80;99.90;;;;;;5016246;28;20463;-60
2022/12/31 05:23:46;;;;;;;1.90;1.40;;;14.80;99.90;;;;;;5016670;28;20757;-61
2022/12/31 05:26:13;;;;;;;2.20;1.20;;;14.90;99.90;;;;;;5015894;28;20464;-61
2022/12/31 05:28:40;;;;;;;1.90;1.40;;;15.00;99.90;;;;;;5015197;28;20463;-57
2022/12/31 05:31:07;;;;;;;2.20;1.13;;;15.10;99.90;;;;;;5015252;28;20471;-62
2022/12/31 05:33:36;;;;;;;1.80;1.20;;;15.10;99.90;;;;;;5016283;28;20464;-61
2022/12/31 05:36:03;;;;;;;2.87;1.40;;;15.20;1.00;;;;;;5015825;28;20459;-59
2022/12/31 05:38:30;;;;;;;4.80;1.53;;;15.20;1.00;;;;;;5016254;28;20490;-61
2022/12/31 05:41:02;;;;;;;2.97;1.10;;;15.20;2.20;;;;;;5015985;28;20464;-58
2022/12/31 05:43:29;;;;;;;2.33;1.27;;;15.20;99.90;;;;;;5016209;28;20974;-62
2022/12/31 05:45:57;;;;;;;2.20;1.27;;;15.20;99.90;;;;;;5016136;28;20466;-59
2022/12/31 05:48:24;;;;;;;2.77;1.50;;;15.20;99.90;;;;;;5015693;28;20474;-59
2022/12/31 05:50:52;;;;;;;6.20;1.90;;;15.20;99.90;;;;;;5015334;28;20563;-62
2022/12/31 05:53:19;;;;;;;2.60;1.27;;;15.20;99.90;;;;;;5015816;28;20474;-61
2022/12/31 05:55:47;;;;;;;2.00;1.23;;;15.30;27.30;;;;;;5017172;28;20868;-57
2022/12/31 05:58:15;;;;;;;2.00;1.40;;;15.30;17.80;;;;;;5018084;28;20470;-62
2022/12/31 06:00:43;;;;;;;2.80;1.70;;;15.30;1.00;;;;;;5018768;28;20468;-60
2022/12/31 06:03:10;;;;;;;4.23;1.60;;;15.40;1.00;;;;;;5019080;28;20464;-60
2022/12/31 06:05:40;;;;;;;2.93;1.40;;;15.40;1.00;;;;;;5018729;28;20495;-61
2022/12/31 06:08:09;;;;;;;2.60;1.40;;;15.40;1.00;;;;;;5018686;28;20766;-59
2022/12/31 06:10:37;;;;;;;3.63;1.30;;;15.40;1.00;;;;;;5018755;28;20463;-60
2022/12/31 06:13:04;;;;;;;2.37;1.73;;;15.40;1.00;;;;;;5019224;28;20464;-61
2022/12/31 06:15:31;;;;;;;1.90;1.40;;;15.40;1.00;;;;;;5019363;28;20464;-59
2022/12/31 06:17:59;;;;;;;3.90;1.53;;;15.40;1.00;;;;;;5019513;28;20780;-59
2022/12/31 06:20:26;;;;;;;2.67;1.40;;;15.40;1.00;;;;;;5018720;28;20467;-60
2022/12/31 06:22:53;;;;;;;2.70;1.60;;;15.40;1.00;;;;;;5019411;28;20464;-58
2022/12/31 06:25:22;;;;;;;2.07;1.17;;;15.50;1.00;;;;;;5019386;28;20518;-60
2022/12/31 06:27:49;;;;;;;3.00;1.53;;;15.60;1.00;;;;;;5018550;28;20464;-60
2022/12/31 06:30:16;;;;;;;2.73;1.67;;;15.60;1.00;;;;;;5018237;28;20928;-59
2022/12/31 06:32:43;;;;;;;2.67;1.30;;;15.60;1.00;;;;;;5019090;28;20471;-60
2022/12/31 06:35:10;;;;;;;2.10;1.30;;;15.60;1.00;;;;;;5058717;28;20480;-60
2022/12/31 06:37:38;;;;;;;3.20;1.40;;;15.60;1.00;;;;;;5058807;28;20938;-61
2022/12/31 06:40:06;;;;;;;2.60;1.80;;;15.60;99.90;;;;;;5058673;28;20773;-59
2022/12/31 06:42:34;;;;;;;4.20;1.60;;;15.70;99.90;;;;;;5058185;28;20462;-61
2022/12/31 06:45:02;;;;;;;4.13;1.80;;;15.70;99.90;;;;;;5058159;28;20497;-56
2022/12/31 06:47:29;;;;;;;3.70;1.40;;;15.70;99.90;;;;;;5058595;28;20458;-59
2022/12/31 06:49:56;;;;;;;3.80;1.47;;;15.70;99.90;;;;;;5058437;28;20876;-59
2022/12/31 06:52:23;;;;;;;2.47;1.43;;;15.70;99.90;;;;;;5058854;28;20465;-55
2022/12/31 06:54:51;;;;;;;6.63;1.67;;;15.70;99.90;;;;;;5058184;28;20953;-58
2022/12/31 06:57:19;;;;;;;3.13;1.80;;;15.70;99.90;;;;;;5057794;28;20462;-58
2022/12/31 06:59:48;;;;;;;2.10;1.60;;;15.70;99.90;;;;;;5051063;28;20491;-59
2022/12/31 07:02:32;;;;;;;3.10;1.50;;;15.80;99.90;;;;;;5018454;28;20460;-61
2022/12/31 07:05:30;;;;;;;4.03;1.63;;;15.80;99.90;;;;;;5017087;28;20598;-60
2022/12/31 07:08:08;;;;;;;2.30;1.70;;;15.80;99.90;;;;;;5017259;28;20503;-60
2022/12/31 07:10:42;;;;;;;3.50;1.70;;;15.80;99.90;;;;;;5017860;28;20564;-59
2022/12/31 07:13:30;;;;;;;2.83;1.50;;;15.90;99.90;;;;;;5017489;28;20463;-59
2022/12/31 07:16:11;;;;;;;3.03;1.80;;;15.90;99.90;;;;;;5018384;28;20669;-58
2022/12/31 07:18:46;;;;;;;1.90;1.40;;;16.00;99.90;;;;;;5017890;28;20470;-59
2022/12/31 07:21:16;;;;;;;2.27;1.67;;;15.90;99.90;;;;;;5017819;28;20922;-59
2022/12/31 07:23:43;;;;;;;6.83;1.97;;;15.90;99.90;;;;;;5017892;28;20735;-59
2022/12/31 07:26:18;;;;;;;2.50;1.60;;;15.90;99.90;;;;;;5017258;28;20495;-59
2022/12/31 07:28:57;;;;;;;2.93;1.90;;;15.90;99.90;;;;;;5017469;28;20499;-57
2022/12/31 07:31:34;;;;;;;2.87;1.50;;;15.90;99.90;;;;;;5017561;28;20456;-59
2022/12/31 07:34:07;;;;;;;3.10;1.60;;;15.90;99.90;;;;;;5017959;28;20784;-58
2022/12/31 07:36:50;;;;;;;3.03;1.50;;;16.00;99.90;;;;;;5017762;28;20468;-59
2022/12/31 07:39:25;;;;;;;2.10;1.50;;;16.00;99.90;;;;;;5017801;28;20570;-57
2022/12/31 07:41:58;;;;;;;2.50;1.87;;;16.00;99.90;;;;;;5017792;28;20944;-58
2022/12/31 07:44:37;;;;;;;3.37;1.90;;;15.90;99.90;;;;;;5017127;28;20495;-60
2022/12/31 07:47:19;;;;;;;2.60;1.63;;;15.90;99.90;;;;;;5017593;28;20820;-57
2022/12/31 07:49:46;;;;;;;2.63;1.63;;;15.90;99.90;;;;;;5017528;28;20566;-59
2022/12/31 07:52:14;;;;;;;2.97;1.70;;;15.90;99.90;;;;;;5017501;28;20915;-57
2022/12/31 07:54:41;;;;;;;5.80;2.40;;;16.00;99.90;;;;;;5017152;28;20467;-57
2022/12/31 07:57:09;;;;;;;3.00;1.33;;;16.00;99.90;;;;;;5017512;28;20881;-59
2022/12/31 07:59:47;;;;;;;3.27;1.90;;;16.00;99.90;;;;;;5017302;28;20464;-54
2022/12/31 08:02:25;;;;;;;2.60;1.63;;;16.00;99.90;;;;;;5016910;28;20457;-57
2022/12/31 08:05:02;;;;;;;3.17;1.70;;;16.00;85.90;;;;;;5016783;28;20499;-56
2022/12/31 08:07:35;;;;;;;2.30;1.50;;;16.10;85.10;;;;;;5017435;28;20460;-55
2022/12/31 08:10:08;;;;;;;5.63;1.90;;;16.00;81.70;;;;;;5016960;28;20866;-57
2022/12/31 08:12:38;;;;;;;3.63;1.60;;;16.00;82.90;;;;;;5016914;28;20486;-57
2022/12/31 08:15:13;;;;;;;4.20;1.80;;;16.00;74.40;;;;;;5017429;28;20882;-59
2022/12/31 08:17:42;;;;;;;2.77;1.53;;;16.00;60.20;;;;;;5017187;28;20558;-60
2022/12/31 08:20:14;;;;;;;3.20;1.73;;;16.10;54.10;;;;;;5016591;28;20464;-58
2022/12/31 08:22:58;;;;;;;3.93;2.03;;;16.00;47.70;;;;;;5016775;28;20471;-60
2022/12/31 08:25:35;;;;;;;3.30;1.80;;;16.00;41.50;;;;;;5016918;28;20498;-61
2022/12/31 08:28:10;;;;;;;3.00;1.87;;;16.00;31.70;;;;;;5015238;28;20470;-60
2022/12/31 08:30:50;;;;;;;2.40;1.60;;;16.10;21.60;;;;;;5014061;28;20464;-62
2022/12/31 08:33:23;;;;;;;2.80;1.90;;;16.10;18.60;;;;;;5015288;28;20463;-62
2022/12/31 08:36:06;;;;;;;2.63;1.90;;;16.10;15.60;;;;;;5015001;28;20460;-59
2022/12/31 08:38:42;;;;;;;4.37;1.80;;;16.10;11.80;;;;;;5015295;28;20916;-59
2022/12/31 08:41:18;;;;;;;2.60;1.60;;;16.10;15.40;;;;;;5015638;28;20471;-60
2022/12/31 08:43:53;;;;;;;2.73;1.60;;;16.10;22.90;;;;;;5016224;28;20567;-60
2022/12/31 08:46:26;;;;;;;4.53;2.20;;;16.00;22.90;;;;;;5016258;28;21009;-60
2022/12/31 08:48:55;;;;;;;2.63;1.90;;;16.00;22.80;;;;;;5016368;28;20470;-60
2022/12/31 08:51:25;;;;;;;3.40;1.90;;;16.10;6.90;;;;;;5016629;28;20550;-59
2022/12/31 08:53:54;;;;;;;3.27;1.90;;;16.20;1.00;;;;;;5016488;28;20468;-61
2022/12/31 08:56:29;;;;;;;3.30;1.77;;;16.20;1.00;;;;;;5018764;28;20483;-59
2022/12/31 08:59:11;;;;;;;4.00;2.17;;;16.20;1.00;;;;;;5015511;28;20557;-60
2022/12/31 09:01:50;;;;;;;3.93;3.00;;;16.20;1.00;;;;;;5016147;28;20788;-58
2022/12/31 09:04:27;;;;;;;3.23;2.17;;;16.20;1.00;;;;;;5015825;28;20878;-59
2022/12/31 09:06:58;;;;;;;2.53;1.87;;;16.20;1.00;;;;;;4996498;28;20502;-60
2022/12/31 09:09:37;;;;;;;3.70;2.10;;;16.20;1.00;;;;;;4996787;28;20465;-61
2022/12/31 09:12:10;;;;;;;3.40;1.80;;;16.20;1.00;;;;;;4996826;28;20475;-60
2022/12/31 09:14:47;;;;;;;2.90;1.80;;;16.20;1.00;;;;;;5027223;28;20469;-60
2022/12/31 09:17:41;;;;;;;2.60;1.70;;;16.20;1.00;;;;;;5036028;28;20467;-60
2022/12/31 09:20:16;;;;;;;4.17;2.03;;;16.20;1.00;;;;;;5034996;28;20902;-57
2022/12/31 09:22:44;;;;;;;3.13;1.80;;;16.20;1.00;;;;;;5035691;28;20507;-57
2022/12/31 09:25:15;;;;;;;3.00;2.13;;;16.20;1.00;;;;;;5035555;28;20586;-57
2022/12/31 09:27:47;;;;;;;3.20;2.00;;;16.30;1.00;;;;;;5015199;28;20471;-57
2022/12/31 09:30:16;;;;;;;4.20;2.17;;;16.30;1.00;;;;;;5015265;28;20456;-60
2022/12/31 09:32:52;;;;;;;3.30;1.93;;;16.30;1.00;;;;;;5019424;28;20563;-56
2022/12/31 09:35:30;;;;;;;3.60;1.80;;;16.30;1.00;;;;;;5020051;28;20459;-57
2022/12/31 09:38:04;;;;;;;6.07;2.57;;;16.30;1.00;;;;;;5020153;28;20829;-56
2022/12/31 09:41:07;;;;;;;3.17;2.30;;;16.20;1.00;;;;;;5019894;28;20550;-59
2022/12/31 09:44:18;;;;;;;2.50;1.60;;;16.30;1.00;;;;;;5017359;28;20475;-57
2022/12/31 09:47:31;;;;;;;3.93;2.10;;;16.40;1.00;;;;;;4985918;28;20503;-57
2022/12/31 09:50:34;;;;;;;2.87;1.60;;;16.40;1.00;;;;;;5018566;28;20950;-60
2022/12/31 09:53:36;;;;;;;7.83;2.40;;;16.40;1.00;;;;;;5010827;28;20471;-59
2022/12/31 09:56:08;;;;;;;3.53;1.80;;;16.40;1.00;;;;;;5010951;28;20471;-59
2022/12/31 09:58:45;;;;;;;5.00;2.30;;;16.50;1.00;;;;;;5019030;28;20474;-58
2022/12/31 10:01:26;;;;;;;3.63;2.00;;;16.50;1.00;;;;;;5019186;28;20464;-60
2022/12/31 10:04:14;;;;;;;3.40;2.00;;;16.50;1.00;;;;;;5019514;28;20470;-58
2022/12/31 10:06:52;;;;;;;3.30;1.97;;;16.50;1.00;;;;;;5037249;28;20491;-59
2022/12/31 10:09:46;;;;;;;2.60;1.90;;;16.50;1.00;;;;;;5039370;28;20468;-59
2022/12/31 10:12:42;;;;;;;2.80;2.00;;;16.60;1.00;;;;;;5039007;28;20947;-54
2022/12/31 10:15:54;;;;;;;3.97;1.80;;;16.60;1.00;;;;;;5036062;28;20475;-56
2022/12/31 10:18:36;;;;;;;2.70;1.70;;;16.60;1.00;;;;;;4957597;29;20459;-60
2022/12/31 10:21:19;;;;;;;3.27;2.30;;;16.50;1.00;;;;;;5036588;28;20467;-58
2022/12/31 10:23:55;;;;;;;3.13;1.90;;;16.60;1.00;;;;;;5039317;28;20462;-58
2022/12/31 10:26:52;;;;;;;3.07;1.90;;;16.60;1.00;;;;;;5038683;28;20494;-58
2022/12/31 10:29:29;;;;;;;3.93;2.50;;;16.60;1.00;;;;;;5039079;28;20465;-56
2022/12/31 10:32:12;;;;;;;4.43;2.17;;;16.60;1.00;;;;;;5038355;28;20462;-59
2022/12/31 10:34:53;;;;;;;6.83;3.30;;;16.60;1.00;;;;;;5038961;28;20447;-60
2022/12/31 10:37:24;;;;;;;5.53;2.43;;;16.70;1.00;;;;;;5039098;28;20884;-58
2022/12/31 10:40:04;;;;;;;3.97;2.33;;;16.70;1.00;;;;;;5038853;28;20467;-59
2022/12/31 10:43:11;;;;;;;3.40;1.90;;;16.70;1.00;;;;;;5037574;28;20463;-53
2022/12/31 10:46:11;;;;;;;4.07;1.87;;;16.70;1.00;;;;;;5038651;28;20656;-59
2022/12/31 10:49:14;;;;;;;2.83;2.13;;;16.70;1.00;;;;;;5005432;28;20444;-57
2022/12/31 10:52:11;;;;;;;4.33;2.20;;;16.70;1.00;;;;;;5035510;28;20473;-60
2022/12/31 10:55:28;;;;;;;10.37;2.10;;;16.70;1.00;;;;;;5038347;28;20561;-60
2022/12/31 10:58:41;;;;;;;4.67;2.60;;;16.70;1.00;;;;;;5038664;28;20474;-59
2022/12/31 11:01:13;;;;;;;2.97;2.30;;;16.70;1.00;;;;;;5036874;28;20558;-58
2022/12/31 11:04:29;;;;;;;4.93;2.23;;;16.70;1.00;;;;;;5036992;28;20454;-59
2022/12/31 11:07:45;;;;;;;4.30;2.30;;;16.70;1.00;;;;;;4969908;28;20605;-60
2022/12/31 11:10:40;;;;;;;3.90;2.10;;;16.70;1.00;;;;;;4971294;28;20819;-60
2022/12/31 11:13:50;;;;;;;4.63;2.73;;;16.60;1.00;;;;;;4998044;28;20963;-60
2022/12/31 11:16:33;;;;;;;5.13;2.00;;;16.70;1.00;;;;;;4997464;28;20878;-60
2022/12/31 11:19:12;;;;;;;4.83;2.27;;;16.70;1.00;;;;;;4996351;28;20468;-60
2022/12/31 11:21:57;;;;;;;3.10;2.30;;;16.80;1.00;;;;;;4996374;28;20457;-60
2022/12/31 11:24:38;;;;;;;5.73;2.10;;;16.80;1.00;;;;;;4996023;28;20469;-60
2022/12/31 11:27:18;;;;;;;5.23;2.40;;;16.80;1.00;;;;;;4996314;28;20493;-58
2022/12/31 11:30:01;;;;;;;3.17;2.20;;;16.80;1.00;;;;;;4996069;28;20465;-57
2022/12/31 11:32:40;;;;;;;6.33;2.67;;;16.80;1.00;;;;;;4997011;28;20512;-61
2022/12/31 11:35:21;;;;;;;2.40;1.80;;;16.80;1.00;;;;;;4998621;28;20465;-59
2022/12/31 11:37:50;;;;;;;2.83;2.10;;;16.90;1.00;;;;;;4996382;28;20937;-60
2022/12/31 11:40:40;;;;;;;5.03;2.60;;;16.80;1.00;;;;;;4997511;28;20461;-58
2022/12/31 11:43:22;;;;;;;3.07;2.10;;;16.80;1.00;;;;;;4997483;28;20484;-60
2022/12/31 11:46:14;;;;;;;4.87;2.40;;;16.80;1.00;;;;;;4997559;28;20523;-60
2022/12/31 11:48:52;;;;;;;3.57;1.93;;;16.80;1.00;;;;;;4997584;28;20470;-59
2022/12/31 11:51:36;;;;;;;4.40;1.90;;;16.80;1.00;;;;;;4998515;28;20476;-56
2022/12/31 11:54:30;;;;;;;3.37;2.43;;;16.90;1.00;;;;;;4998446;28;20468;-58
2022/12/31 11:57:05;;;;;;;5.33;1.83;;;16.80;1.00;;;;;;4995336;28;20472;-61
2022/12/31 11:59:32;;;;;;;4.03;1.80;;;16.80;1.00;;;;;;4998622;28;20559;-57
2022/12/31 12:02:04;;;;;;;3.33;2.30;;;16.80;1.00;;;;;;4998756;28;20881;-61
2022/12/31 12:04:31;;;;;;;3.07;1.80;;;16.90;1.00;;;;;;4998965;28;20886;-61
2022/12/31 12:07:00;;;;;;;5.87;2.50;;;16.80;1.00;;;;;;5017942;28;20506;-59
2022/12/31 12:09:30;;;;;;;5.53;2.20;;;16.80;1.00;;;;;;5018450;28;20464;-60
2022/12/31 12:12:01;;;;;;;5.67;2.23;;;16.80;1.00;;;;;;5017918;28;20464;-58
2022/12/31 12:14:34;;;;;;;3.90;2.70;;;16.90;1.00;;;;;;5017575;28;20467;-59
2022/12/31 12:17:02;;;;;;;5.30;2.33;;;16.80;1.00;;;;;;5015768;28;20468;-60
2022/12/31 12:19:32;;;;;;;4.50;2.33;;;16.80;1.00;;;;;;5034702;28;20473;-56
2022/12/31 12:22:11;;;;;;;3.80;2.03;;;16.80;1.00;;;;;;5036068;28;20452;-59
2022/12/31 12:24:38;;;;;;;2.87;2.13;;;16.80;1.00;;;;;;5018163;28;20533;-59
2022/12/31 12:27:05;;;;;;;3.80;3.10;;;16.80;1.00;;;;;;5015683;28;20492;-61
2022/12/31 12:29:34;;;;;;;2.67;2.10;;;16.70;1.00;;;;;;5015486;28;20474;-59
2022/12/31 12:32:03;;;;;;;2.87;1.73;;;16.80;1.00;;;;;;5015839;28;20464;-59
2022/12/31 12:34:32;;;;;;;3.53;2.13;;;16.80;1.00;;;;;;5016128;28;20470;-60
2022/12/31 12:37:01;;;;;;;6.33;2.27;;;16.70;1.00;;;;;;5018056;28;20452;-61
2022/12/31 12:39:31;;;;;;;4.70;1.90;;;16.60;1.00;;;;;;5028141;28;20471;-59
2022/12/31 12:42:03;;;;;;;4.60;2.20;;;16.60;1.00;;;;;;5014467;28;20466;-60
2022/12/31 12:44:31;;;;;;;3.60;2.43;;;16.60;1.00;;;;;;5013807;28;20451;-60
2022/12/31 12:46:59;;;;;;;3.33;1.70;;;16.60;1.00;;;;;;5014011;28;20502;-57
2022/12/31 12:49:28;;;;;;;5.80;2.70;;;16.60;1.00;;;;;;5014584;28;20783;-59
2022/12/31 12:52:24;;;;;;;4.53;1.83;;;16.50;1.00;;;;;;5016373;28;20442;-59
2022/12/31 12:55:07;;;;;;;3.20;2.20;;;16.30;1.00;;;;;;5017276;28;20468;-57
2022/12/31 12:57:42;;;;;;;6.10;2.40;;;16.10;41.60;;;;;;5017807;28;20467;-56
2022/12/31 13:00:17;;;;;;;5.80;2.40;;;15.90;99.90;;;;;;5016606;28;20463;-60
2022/12/31 13:03:15;;;;;;;4.13;2.20;;;15.70;99.90;;;;;;5026314;28;20763;-60
2022/12/31 13:05:55;;;;;;;3.40;2.63;;;15.70;1.00;;;;;;4977863;28;20519;-57
2022/12/31 13:08:35;;;;;;;4.53;2.50;;;15.70;99.90;;;;;;5019412;28;20910;-61
2022/12/31 13:11:24;;;;;;;3.93;2.50;;;15.80;99.90;;;;;;5020600;28;20546;-62
2022/12/31 13:14:00;;;;;;;3.17;2.20;;;15.90;82.00;;;;;;5016926;28;20464;-61
2022/12/31 13:16:34;;;;;;;4.30;2.13;;;16.00;18.30;;;;;;5017564;28;20455;-59
2022/12/31 13:19:07;;;;;;;7.27;2.57;;;16.00;1.00;;;;;;5016913;28;20438;-61
2022/12/31 13:21:46;;;;;;;4.10;2.67;;;16.10;1.00;;;;;;5025877;28;20455;-60
2022/12/31 13:24:29;;;;;;;8.00;3.47;;;16.20;1.00;;;;;;5034406;28;20500;-60
2022/12/31 13:27:05;;;;;;;5.60;2.27;;;16.20;1.00;;;;;;5019930;28;20487;-59
2022/12/31 13:29:35;;;;;;;6.33;3.27;;;16.20;1.00;;;;;;5016690;28;20470;-59
2022/12/31 13:32:05;;;;;;;6.13;2.60;;;16.20;1.00;;;;;;5019763;28;20463;-58
2022/12/31 13:34:36;;;;;;;7.00;2.93;;;16.20;1.00;;;;;;5023750;28;20460;-60
2022/12/31 13:37:12;;;;;;;8.77;2.90;;;16.10;1.00;;;;;;5023552;28;20506;-62
2022/12/31 13:39:43;;;;;;;6.90;2.50;;;16.10;1.00;;;;;;5015452;28;20460;-58
2022/12/31 13:42:16;;;;;;;5.20;2.60;;;16.10;1.00;;;;;;5022904;28;20453;-61